Time;durP1;ratioP1;P1;durP2;ratioP2;P2;SDS_P1;SDS_P2;PMS_P1;PMS_P2;Temp;Humidity;BMP_temperature;BMP_pressure;BME280_temperature;BME280_humidity;BME280_pressure;Samples;Min_cycle;Max_cycle;Signal;HPM_P1;HPM_P2
2022/12/07 00:01:34;;;;;;;10.30;7.77;;;5.70;1.00;;;;;;5119891;28;20401;-41
2022/12/07 00:04:05;;;;;;;8.53;7.70;;;5.60;1.00;;;;;;5102325;28;20429;-41
2022/12/07 00:06:37;;;;;;;7.73;7.00;;;5.60;1.00;;;;;;5103566;28;20883;-42
2022/12/07 00:09:08;;;;;;;9.33;7.90;;;5.70;1.00;;;;;;5102611;28;20485;-43
2022/12/07 00:11:34;;;;;;;8.30;7.50;;;5.70;1.00;;;;;;5107532;28;20449;-42
2022/12/07 00:14:03;;;;;;;8.53;7.03;;;5.60;1.00;;;;;;5119407;28;20517;-42
2022/12/07 00:16:30;;;;;;;7.83;6.60;;;5.60;1.00;;;;;;5119438;28;20182;-42
2022/12/07 00:18:56;;;;;;;9.00;7.80;;;5.70;1.00;;;;;;5117961;28;20432;-41
2022/12/07 00:21:25;;;;;;;8.63;7.40;;;5.60;1.00;;;;;;5118420;28;20428;-41
2022/12/07 00:23:51;;;;;;;8.97;7.77;;;5.70;1.00;;;;;;5117356;28;20477;-42
2022/12/07 00:26:20;;;;;;;8.30;7.50;;;5.70;1.00;;;;;;5117517;28;20451;-41
2022/12/07 00:28:51;;;;;;;6.90;6.20;;;5.70;1.00;;;;;;5118751;28;20414;-41
2022/12/07 00:31:19;;;;;;;8.33;7.43;;;5.70;1.00;;;;;;5116580;28;20409;-44
2022/12/07 00:33:45;;;;;;;8.00;7.23;;;5.70;1.00;;;;;;5117439;28;20417;-42
2022/12/07 00:36:14;;;;;;;9.80;8.40;;;5.70;1.00;;;;;;5116779;28;20444;-42
2022/12/07 00:38:40;;;;;;;10.13;8.30;;;5.60;1.00;;;;;;5117504;28;20528;-43
2022/12/07 00:41:23;;;;;;;8.90;7.80;;;5.70;1.00;;;;;;5119394;28;20410;-42
2022/12/07 00:43:50;;;;;;;9.07;7.70;;;5.70;1.00;;;;;;5118381;28;20494;-42
2022/12/07 00:46:18;;;;;;;9.50;8.50;;;5.70;1.00;;;;;;5119551;28;20412;-42
2022/12/07 00:48:44;;;;;;;10.20;9.20;;;5.60;1.00;;;;;;5101168;28;20831;-42
2022/12/07 00:51:11;;;;;;;10.30;9.30;;;5.60;1.00;;;;;;5119263;28;20504;-41
2022/12/07 00:53:38;;;;;;;9.80;8.80;;;5.60;1.00;;;;;;5119556;28;20914;-42
2022/12/07 00:56:14;;;;;;;11.17;9.20;;;5.70;1.00;;;;;;5120248;28;20405;-42
2022/12/07 00:58:40;;;;;;;11.37;9.73;;;5.60;1.00;;;;;;5118418;28;20422;-43
2022/12/07 01:01:07;;;;;;;11.07;9.90;;;5.60;1.00;;;;;;5102002;28;20680;-42
2022/12/07 01:03:32;;;;;;;9.47;8.53;;;5.60;1.00;;;;;;5119612;28;20163;-42
2022/12/07 01:05:58;;;;;;;11.77;9.57;;;5.60;1.00;;;;;;5119126;28;20437;-42
2022/12/07 01:08:25;;;;;;;10.63;9.20;;;5.60;1.00;;;;;;5118073;28;20379;-42
2022/12/07 01:10:59;;;;;;;10.73;9.73;;;5.60;1.00;;;;;;5119097;28;20451;-42
2022/12/07 01:13:25;;;;;;;10.80;9.47;;;5.60;1.00;;;;;;5101185;28;20426;-44
2022/12/07 01:15:55;;;;;;;10.00;9.00;;;5.60;1.00;;;;;;5118563;28;20437;-41
2022/12/07 01:18:21;;;;;;;10.43;8.93;;;5.60;1.00;;;;;;5118754;28;20176;-42
2022/12/07 01:20:57;;;;;;;10.83;9.47;;;5.60;1.00;;;;;;5101398;28;20440;-43
2022/12/07 01:23:23;;;;;;;12.83;9.63;;;5.60;1.00;;;;;;5118971;28;20175;-42
2022/12/07 01:25:55;;;;;;;11.37;10.17;;;5.60;1.00;;;;;;5118041;28;20585;-43
2022/12/07 01:28:21;;;;;;;11.30;10.20;;;5.60;1.00;;;;;;5083216;28;20247;-44
2022/12/07 01:30:58;;;;;;;12.03;10.03;;;5.60;1.00;;;;;;5118869;28;20832;-42
2022/12/07 01:33:24;;;;;;;10.80;9.00;;;5.50;1.00;;;;;;5101803;28;20183;-42
2022/12/07 01:35:49;;;;;;;10.73;9.63;;;5.60;1.00;;;;;;5118557;28;20425;-43
2022/12/07 01:38:15;;;;;;;10.83;9.73;;;5.50;1.00;;;;;;5116474;28;20363;-41
2022/12/07 01:40:41;;;;;;;10.83;9.23;;;5.50;1.00;;;;;;5117147;28;20261;-42
2022/12/07 01:43:19;;;;;;;11.27;10.17;;;5.50;99.90;;;;;;5117564;28;20175;-42
2022/12/07 01:45:45;;;;;;;10.60;9.60;;;5.50;99.90;;;;;;5117520;28;20448;-44
2022/12/07 01:48:12;;;;;;;10.80;9.70;;;5.50;99.90;;;;;;5082619;28;20571;-44
2022/12/07 01:50:39;;;;;;;11.80;10.60;;;5.50;99.90;;;;;;5100064;28;20262;-41
2022/12/07 01:53:06;;;;;;;12.80;10.90;;;5.50;99.90;;;;;;5100617;28;20490;-40
2022/12/07 01:55:33;;;;;;;11.57;10.47;;;5.50;99.90;;;;;;5118303;28;20432;-42
2022/12/07 01:57:59;;;;;;;10.47;9.20;;;5.50;99.90;;;;;;5119466;28;20409;-40
2022/12/07 02:00:25;;;;;;;11.30;10.20;;;5.50;99.90;;;;;;5118454;28;20459;-42
2022/12/07 02:02:55;;;;;;;10.73;9.63;;;5.50;99.90;;;;;;5118838;28;20183;-41
2022/12/07 02:05:23;;;;;;;10.80;9.50;;;5.50;99.90;;;;;;5117677;28;20466;-43
2022/12/07 02:07:49;;;;;;;10.47;9.43;;;5.50;99.90;;;;;;5100234;28;20464;-41
2022/12/07 02:10:29;;;;;;;9.90;8.90;;;5.40;99.90;;;;;;5100870;28;20444;-41
2022/12/07 02:13:00;;;;;;;10.60;9.50;;;5.40;99.90;;;;;;5114195;28;20500;-42
2022/12/07 02:15:39;;;;;;;11.17;9.77;;;5.40;99.90;;;;;;5117579;28;20437;-44
2022/12/07 02:18:13;;;;;;;9.97;8.90;;;5.40;99.90;;;;;;5118580;27;20413;-41
2022/12/07 02:20:41;;;;;;;9.93;8.93;;;5.40;99.90;;;;;;5118828;28;20454;-42
2022/12/07 02:23:46;;;;;;;9.73;8.83;;;5.40;99.90;;;;;;5117128;28;20496;-42
2022/12/07 02:29:58;;;;;;;12.53;10.40;;;5.40;38.80;;;;;;5116369;28;20412;-41
2022/12/07 02:32:36;;;;;;;10.10;9.03;;;5.40;17.30;;;;;;5115581;28;20412;-42
2022/12/07 02:35:13;;;;;;;9.93;8.93;;;5.40;15.60;;;;;;5116980;28;20413;-43
2022/12/07 02:37:46;;;;;;;10.33;9.20;;;5.40;10.90;;;;;;5117319;28;20409;-43
2022/12/07 02:40:38;;;;;;;11.03;9.50;;;5.40;34.60;;;;;;5117418;28;20516;-41
2022/12/07 02:43:29;;;;;;;11.60;10.50;;;5.40;18.40;;;;;;5072663;28;20582;-47
2022/12/07 02:45:59;;;;;;;10.60;9.60;;;5.40;5.20;;;;;;5117166;28;20421;-43
2022/12/07 02:48:26;;;;;;;11.13;10.07;;;5.40;1.00;;;;;;5117979;28;20461;-42
2022/12/07 02:50:53;;;;;;;11.10;9.50;;;5.40;1.00;;;;;;5116645;28;20417;-42
2022/12/07 02:53:34;;;;;;;11.50;10.30;;;5.40;1.00;;;;;;5117909;28;20417;-42
2022/12/07 02:56:07;;;;;;;10.50;9.10;;;5.40;1.00;;;;;;5117694;28;20699;-43
2022/12/07 02:58:46;;;;;;;11.83;9.77;;;5.30;1.00;;;;;;5098940;28;20414;-41
2022/12/07 03:01:29;;;;;;;10.77;9.00;;;5.30;1.00;;;;;;5117287;28;20409;-42
2022/12/07 03:04:37;;;;;;;13.87;9.50;;;5.30;1.00;;;;;;5117552;28;20433;-44
2022/12/07 03:07:13;;;;;;;11.03;9.43;;;5.30;1.00;;;;;;5116526;28;20468;-44
2022/12/07 03:09:47;;;;;;;8.57;7.77;;;5.30;1.00;;;;;;5116978;28;20478;-41
2022/12/07 03:12:40;;;;;;;9.63;8.63;;;5.30;1.00;;;;;;5116841;28;20461;-41
2022/12/07 03:15:12;;;;;;;10.20;9.20;;;5.30;1.00;;;;;;5086348;28;20433;-43
2022/12/07 03:17:40;;;;;;;8.53;7.60;;;5.30;1.00;;;;;;5117350;28;20420;-42
2022/12/07 03:20:07;;;;;;;8.77;7.80;;;5.30;1.00;;;;;;5116239;28;20444;-46
2022/12/07 03:22:35;;;;;;;10.20;9.20;;;5.30;1.00;;;;;;5116663;28;20684;-41
2022/12/07 03:25:06;;;;;;;8.27;7.47;;;5.30;1.00;;;;;;5116028;28;20452;-44
2022/12/07 03:27:41;;;;;;;10.33;9.23;;;5.30;1.00;;;;;;5116962;28;20551;-42
2022/12/07 03:30:08;;;;;;;9.83;8.83;;;5.30;1.00;;;;;;5117103;28;20428;-41
2022/12/07 03:32:36;;;;;;;10.27;9.27;;;5.30;1.00;;;;;;5117839;28;20437;-42
2022/12/07 03:35:24;;;;;;;10.10;9.10;;;5.20;1.00;;;;;;5115905;28;20497;-41
2022/12/07 03:37:53;;;;;;;9.70;8.70;;;5.20;1.00;;;;;;5116666;28;20409;-41
2022/12/07 03:40:39;;;;;;;10.27;9.27;;;5.30;1.00;;;;;;5116238;28;20478;-42
2022/12/07 03:43:05;;;;;;;9.70;8.80;;;5.20;1.00;;;;;;5117352;28;20401;-43
2022/12/07 03:45:42;;;;;;;10.20;8.80;;;5.30;1.00;;;;;;5117170;28;20433;-43
2022/12/07 03:48:27;;;;;;;9.63;8.63;;;5.20;1.00;;;;;;5116820;28;20210;-46
2022/12/07 03:51:03;;;;;;;11.10;9.27;;;5.20;1.00;;;;;;5117647;28;20792;-43
2022/12/07 03:54:01;;;;;;;9.13;8.27;;;5.20;1.00;;;;;;5116680;28;20471;-43
2022/12/07 03:56:28;;;;;;;9.90;8.77;;;5.20;1.00;;;;;;5105453;28;20537;-45
2022/12/07 03:58:54;;;;;;;10.73;9.00;;;5.20;1.00;;;;;;5116133;28;20613;-44
2022/12/07 04:01:20;;;;;;;9.43;8.10;;;5.20;1.00;;;;;;5117430;28;20475;-42
2022/12/07 04:03:45;;;;;;;10.93;9.83;;;5.20;1.00;;;;;;5121521;28;20416;-42
2022/12/07 04:06:11;;;;;;;10.17;9.10;;;5.20;1.00;;;;;;5121484;28;20199;-43
2022/12/07 04:08:36;;;;;;;12.70;9.70;;;5.20;1.00;;;;;;5121382;28;20464;-41
2022/12/07 04:11:02;;;;;;;11.43;8.50;;;5.20;1.00;;;;;;5121038;28;20409;-41
2022/12/07 04:13:28;;;;;;;10.23;9.10;;;5.10;1.00;;;;;;5119647;28;20211;-43
2022/12/07 04:15:53;;;;;;;10.10;9.10;;;5.10;1.00;;;;;;5121168;28;20312;-42
2022/12/07 04:18:19;;;;;;;9.17;8.27;;;5.20;1.00;;;;;;5120929;28;20661;-42
2022/12/07 04:20:46;;;;;;;10.87;9.60;;;5.20;1.00;;;;;;5120561;28;20187;-41
2022/12/07 04:23:11;;;;;;;10.30;9.30;;;5.10;1.00;;;;;;5120066;28;20168;-43
2022/12/07 04:25:37;;;;;;;9.93;8.97;;;5.20;1.00;;;;;;5103252;28;20440;-43
2022/12/07 04:28:02;;;;;;;9.27;8.30;;;5.20;1.00;;;;;;5120751;28;20199;-41
2022/12/07 04:30:28;;;;;;;11.97;10.67;;;5.10;1.00;;;;;;5119652;28;20454;-42
2022/12/07 04:32:54;;;;;;;10.87;9.53;;;5.10;1.00;;;;;;5119926;28;20225;-42
2022/12/07 04:35:20;;;;;;;9.13;8.23;;;5.10;1.00;;;;;;5119583;28;20417;-42
2022/12/07 04:37:45;;;;;;;9.67;8.67;;;5.10;1.00;;;;;;5120588;28;20194;-42
2022/12/07 04:40:12;;;;;;;10.97;8.53;;;5.10;1.00;;;;;;5118913;28;20183;-42
2022/12/07 04:42:38;;;;;;;10.57;9.47;;;5.10;1.00;;;;;;5118316;28;20180;-42
2022/12/07 04:45:04;;;;;;;10.87;9.70;;;5.10;1.00;;;;;;5118999;28;20430;-44
2022/12/07 04:47:30;;;;;;;10.43;9.33;;;5.10;1.00;;;;;;5117952;28;20240;-43
2022/12/07 04:49:55;;;;;;;11.70;10.33;;;5.10;1.00;;;;;;5118522;28;20437;-42
2022/12/07 04:52:21;;;;;;;10.13;9.07;;;5.10;1.00;;;;;;5116895;28;20529;-42
2022/12/07 04:54:46;;;;;;;10.00;8.57;;;5.10;1.00;;;;;;5098546;28;20188;-42
2022/12/07 04:57:12;;;;;;;9.90;8.90;;;5.10;1.00;;;;;;5116204;28;20403;-41
2022/12/07 04:59:37;;;;;;;10.83;9.70;;;5.10;1.00;;;;;;5116938;28;20275;-43
2022/12/07 05:02:03;;;;;;;9.10;8.30;;;5.10;1.00;;;;;;5117684;28;20179;-41
2022/12/07 05:04:28;;;;;;;9.77;8.67;;;5.10;1.00;;;;;;5117856;28;20184;-42
2022/12/07 05:06:54;;;;;;;9.00;8.10;;;5.10;1.00;;;;;;5117958;28;20485;-42
2022/12/07 05:09:20;;;;;;;9.30;8.23;;;5.00;1.00;;;;;;5118961;28;20420;-42
2022/12/07 05:11:45;;;;;;;10.53;9.53;;;5.00;1.00;;;;;;5118467;28;20251;-42
2022/12/07 05:14:17;;;;;;;8.73;7.77;;;5.00;1.00;;;;;;5115824;28;20523;-42
2022/12/07 05:16:45;;;;;;;9.60;8.07;;;4.90;1.00;;;;;;5097418;28;20253;-41
2022/12/07 05:19:11;;;;;;;10.40;9.30;;;4.90;99.90;;;;;;5115876;28;20757;-41
2022/12/07 05:21:37;;;;;;;8.87;7.70;;;4.90;99.90;;;;;;5116491;28;20684;-42
2022/12/07 05:24:03;;;;;;;8.57;7.70;;;4.80;99.90;;;;;;5114627;28;20417;-41
2022/12/07 05:26:29;;;;;;;10.90;8.70;;;4.80;99.90;;;;;;5098915;28;20421;-42
2022/12/07 05:28:55;;;;;;;9.57;8.40;;;4.80;99.90;;;;;;5117460;28;20724;-45
2022/12/07 05:31:22;;;;;;;9.97;7.23;;;4.80;99.90;;;;;;5117023;28;20779;-41
2022/12/07 05:33:48;;;;;;;9.20;8.10;;;4.70;99.90;;;;;;5112658;28;20455;-43
2022/12/07 05:36:13;;;;;;;8.20;7.40;;;4.70;99.90;;;;;;5114837;28;20413;-41
2022/12/07 05:38:39;;;;;;;8.00;7.30;;;4.70;99.90;;;;;;5114281;28;20264;-42
2022/12/07 05:41:06;;;;;;;8.87;7.97;;;4.70;99.90;;;;;;5117070;28;20577;-43
2022/12/07 05:43:32;;;;;;;7.90;6.93;;;4.70;99.90;;;;;;5112769;28;20175;-44
2022/12/07 05:45:58;;;;;;;8.40;7.50;;;4.60;99.90;;;;;;5115334;28;20521;-43
2022/12/07 05:48:24;;;;;;;8.63;7.67;;;4.60;99.90;;;;;;5112006;28;20521;-43
2022/12/07 05:50:51;;;;;;;8.70;7.73;;;4.50;99.90;;;;;;5114050;28;20685;-43
2022/12/07 05:53:17;;;;;;;8.70;7.70;;;4.50;99.90;;;;;;5095598;28;20433;-42
2022/12/07 05:55:43;;;;;;;9.80;8.87;;;4.40;99.90;;;;;;5111934;28;20435;-45
2022/12/07 06:00:57;;;;;;;8.57;7.70;;;4.30;99.90;;;;;;5111694;28;20420;-43
2022/12/07 06:03:23;;;;;;;8.30;7.50;;;4.30;99.90;;;;;;5111881;28;20448;-42
2022/12/07 06:05:49;;;;;;;7.63;6.77;;;4.20;99.90;;;;;;5115101;28;20468;-43
2022/12/07 06:08:15;;;;;;;9.30;7.80;;;4.20;46.20;;;;;;5093446;28;20474;-42
2022/12/07 06:10:41;;;;;;;9.10;8.10;;;4.10;1.00;;;;;;5114791;27;20433;-41
2022/12/07 06:13:07;;;;;;;7.90;7.10;;;4.10;1.00;;;;;;5108778;28;20892;-42
2022/12/07 06:15:35;;;;;;;8.50;7.20;;;4.00;1.00;;;;;;5111552;28;20472;-42
2022/12/07 06:18:01;;;;;;;8.40;7.50;;;4.00;1.00;;;;;;5111754;28;20413;-42
2022/12/07 06:20:36;;;;;;;8.70;7.80;;;4.00;1.00;;;;;;5114594;28;20976;-41
2022/12/07 06:23:03;;;;;;;9.63;8.67;;;4.00;11.10;;;;;;5118005;28;20467;-42
2022/12/07 06:25:29;;;;;;;9.63;8.63;;;4.00;60.30;;;;;;5098611;28;20445;-43
2022/12/07 06:27:56;;;;;;;10.30;9.10;;;4.00;99.90;;;;;;5113085;28;20472;-42
2022/12/07 06:30:22;;;;;;;10.13;9.00;;;4.00;99.90;;;;;;5113178;28;20198;-43
2022/12/07 06:32:47;;;;;;;9.00;8.07;;;3.90;99.90;;;;;;5112459;28;20699;-44
2022/12/07 06:35:13;;;;;;;10.20;8.57;;;3.90;99.90;;;;;;5090415;28;20179;-41
2022/12/07 06:37:38;;;;;;;9.63;8.00;;;4.00;99.90;;;;;;5111752;28;20596;-43
2022/12/07 06:40:05;;;;;;;9.77;8.77;;;4.00;1.00;;;;;;5111661;28;20183;-42
2022/12/07 06:42:30;;;;;;;9.00;7.60;;;4.00;1.00;;;;;;5108980;28;20263;-43
2022/12/07 06:44:56;;;;;;;9.53;8.53;;;4.00;1.00;;;;;;5109338;28;20532;-43
2022/12/07 06:47:21;;;;;;;8.63;7.73;;;4.00;1.00;;;;;;5111035;28;20203;-43
2022/12/07 06:49:47;;;;;;;10.17;8.37;;;4.00;1.00;;;;;;5111210;28;20304;-43
2022/12/07 06:52:13;;;;;;;8.70;7.80;;;4.00;1.00;;;;;;5108315;28;20172;-43
2022/12/07 06:54:38;;;;;;;11.00;9.87;;;4.00;1.00;;;;;;5109574;28;20189;-43
2022/12/07 06:57:04;;;;;;;10.73;8.87;;;4.00;1.00;;;;;;5109459;28;20244;-43
2022/12/07 06:59:29;;;;;;;4.63;3.73;;;4.00;1.00;;;;;;5108749;28;20535;-46
2022/12/07 07:01:55;;;;;;;10.20;7.43;;;5.40;1.00;;;;;;5088388;28;20180;-47
2022/12/07 07:04:20;;;;;;;16.40;9.63;;;7.00;1.00;;;;;;5107176;28;20180;-46
2022/12/07 07:06:46;;;;;;;13.80;9.40;;;8.50;1.00;;;;;;5106490;28;20306;-47
2022/12/07 07:09:12;;;;;;;15.47;9.10;;;9.40;1.00;;;;;;5108610;28;20184;-47
2022/12/07 07:11:38;;;;;;;11.03;8.90;;;10.00;1.00;;;;;;5108819;28;20476;-47
2022/12/07 07:14:03;;;;;;;6.77;6.07;;;10.20;1.00;;;;;;5109676;28;20287;-47
2022/12/07 07:16:30;;;;;;;8.10;5.80;;;10.30;1.00;;;;;;5108987;28;20182;-48
2022/12/07 07:18:56;;;;;;;5.77;5.00;;;10.80;1.00;;;;;;5110409;28;20182;-42
2022/12/07 07:21:21;;;;;;;5.93;5.20;;;11.50;99.90;;;;;;5077446;28;20429;-42
2022/12/07 07:23:47;;;;;;;7.53;6.83;;;11.70;99.90;;;;;;5114811;28;20453;-44
2022/12/07 07:26:13;;;;;;;8.50;7.77;;;11.50;96.60;;;;;;5111976;28;20178;-42
2022/12/07 07:28:38;;;;;;;9.73;8.73;;;11.00;1.00;;;;;;5111583;28;20229;-44
2022/12/07 07:31:04;;;;;;;11.97;9.50;;;10.40;1.00;;;;;;5093934;28;20546;-42
2022/12/07 07:33:30;;;;;;;9.90;8.43;;;9.80;99.90;;;;;;5110629;28;20233;-43
2022/12/07 07:35:55;;;;;;;9.50;8.60;;;9.20;1.00;;;;;;5112026;28;20612;-44
2022/12/07 07:38:26;;;;;;;9.97;9.00;;;8.70;1.00;;;;;;5113610;28;20176;-41
2022/12/07 07:40:52;;;;;;;9.60;8.60;;;8.20;1.00;;;;;;5117336;28;20231;-42
2022/12/07 07:43:18;;;;;;;8.67;7.87;;;7.80;1.00;;;;;;5100173;28;20421;-44
2022/12/07 07:45:44;;;;;;;8.47;7.57;;;7.50;1.00;;;;;;5101087;28;20519;-42
2022/12/07 07:48:10;;;;;;;8.90;7.83;;;7.20;1.00;;;;;;5117130;28;20616;-41
2022/12/07 07:50:35;;;;;;;8.03;7.23;;;6.90;1.00;;;;;;5117658;28;20465;-43
2022/12/07 07:53:01;;;;;;;8.17;7.37;;;6.70;11.20;;;;;;5117696;28;20164;-42
2022/12/07 07:55:26;;;;;;;9.27;7.80;;;6.60;99.90;;;;;;5118645;28;20224;-41
2022/12/07 07:57:52;;;;;;;8.20;7.43;;;6.40;99.90;;;;;;5115513;28;20188;-42
2022/12/07 08:00:18;;;;;;;9.03;8.13;;;6.30;99.90;;;;;;5096689;28;20589;-40
2022/12/07 08:02:44;;;;;;;8.10;6.93;;;6.30;1.00;;;;;;5115143;28;20508;-41
2022/12/07 08:05:10;;;;;;;10.37;7.77;;;6.20;1.00;;;;;;5116418;28;20425;-41
2022/12/07 08:07:36;;;;;;;9.00;8.10;;;6.10;1.00;;;;;;5117314;28;20211;-40
2022/12/07 08:10:02;;;;;;;9.50;8.60;;;6.00;99.90;;;;;;5116453;28;20433;-41
2022/12/07 08:12:28;;;;;;;8.40;7.60;;;6.00;99.90;;;;;;5118114;28;20625;-40
2022/12/07 08:14:54;;;;;;;8.07;7.20;;;6.00;99.90;;;;;;5083945;28;20725;-40
2022/12/07 08:17:20;;;;;;;7.80;6.17;;;6.00;99.90;;;;;;5118051;28;20505;-41
2022/12/07 08:19:45;;;;;;;9.40;8.07;;;6.00;99.90;;;;;;5118882;28;20220;-41
2022/12/07 08:22:11;;;;;;;9.37;7.83;;;6.00;99.90;;;;;;5118303;28;20187;-41
2022/12/07 08:24:37;;;;;;;8.37;7.10;;;6.10;99.90;;;;;;5101380;28;20179;-43
2022/12/07 08:27:03;;;;;;;8.03;7.10;;;6.20;99.90;;;;;;5101819;28;20607;-40
2022/12/07 08:29:29;;;;;;;9.00;7.10;;;6.20;99.90;;;;;;5101804;28;20561;-40
2022/12/07 08:31:55;;;;;;;8.20;7.37;;;6.30;99.90;;;;;;5100713;28;20428;-41
2022/12/07 08:34:20;;;;;;;7.83;7.03;;;6.30;1.00;;;;;;5117615;28;20506;-41
2022/12/07 08:36:46;;;;;;;8.90;7.70;;;6.30;1.00;;;;;;5117671;28;20700;-40
2022/12/07 08:39:11;;;;;;;9.40;8.50;;;6.40;1.00;;;;;;5117611;28;20196;-41
2022/12/07 08:41:37;;;;;;;9.87;8.83;;;6.40;1.00;;;;;;5118493;28;20278;-39
2022/12/07 08:44:03;;;;;;;10.57;9.47;;;6.50;1.00;;;;;;5099634;28;20180;-41
2022/12/07 08:46:46;;;;;;;10.30;9.23;;;6.50;99.90;;;;;;5117530;28;20187;-41
2022/12/07 08:49:26;;;;;;;9.83;8.80;;;6.60;99.90;;;;;;5097129;28;20428;-43
2022/12/07 08:51:52;;;;;;;9.93;7.90;;;6.70;26.20;;;;;;5115304;28;20447;-40
2022/12/07 08:54:18;;;;;;;8.07;7.23;;;6.80;1.00;;;;;;5114058;28;20445;-40
2022/12/07 08:56:45;;;;;;;8.20;7.40;;;6.90;1.00;;;;;;5116028;28;20459;-43
2022/12/07 08:59:12;;;;;;;9.63;7.13;;;7.00;1.00;;;;;;5113732;28;20452;-40
2022/12/07 09:01:38;;;;;;;9.40;6.63;;;7.10;1.00;;;;;;5097105;28;20418;-42
2022/12/07 09:04:03;;;;;;;7.47;6.73;;;7.10;99.90;;;;;;5096004;28;20425;-44
2022/12/07 09:06:29;;;;;;;7.63;6.80;;;7.20;99.90;;;;;;5113774;28;20570;-42
2022/12/07 09:08:58;;;;;;;7.20;6.47;;;7.30;99.90;;;;;;5095772;28;20200;-41
2022/12/07 09:11:23;;;;;;;7.20;6.50;;;7.40;4.30;;;;;;5097958;28;20226;-45
2022/12/07 09:13:49;;;;;;;8.70;6.37;;;7.50;1.00;;;;;;5115668;28;20434;-41
2022/12/07 09:16:14;;;;;;;8.10;6.60;;;7.60;1.00;;;;;;5114461;28;20236;-41
2022/12/07 09:18:40;;;;;;;7.17;6.33;;;7.70;1.00;;;;;;5115177;28;20206;-41
2022/12/07 09:21:05;;;;;;;7.03;6.00;;;7.80;1.00;;;;;;5116997;28;20179;-41
2022/12/07 09:23:31;;;;;;;19.63;6.90;;;7.90;1.00;;;;;;5115387;28;20537;-44
2022/12/07 09:26:02;;;;;;;8.83;6.13;;;8.00;99.90;;;;;;5114787;28;20176;-40
2022/12/07 09:28:28;;;;;;;6.90;6.20;;;8.10;99.90;;;;;;5114305;28;20211;-42
2022/12/07 09:30:54;;;;;;;6.00;5.20;;;8.30;99.90;;;;;;5115596;28;20471;-40
2022/12/07 09:33:20;;;;;;;6.60;5.90;;;8.30;99.90;;;;;;5114571;28;20179;-40
2022/12/07 09:35:47;;;;;;;7.33;6.60;;;8.40;99.90;;;;;;5117490;28;20520;-42
2022/12/07 09:38:13;;;;;;;6.80;5.50;;;8.50;52.40;;;;;;5098720;28;20557;-40
2022/12/07 09:40:39;;;;;;;6.13;5.47;;;8.50;14.70;;;;;;5116437;28;20441;-40
2022/12/07 09:43:11;;;;;;;6.57;5.93;;;8.60;1.00;;;;;;5112917;28;20410;-40
2022/12/07 09:45:37;;;;;;;5.10;4.50;;;8.70;1.00;;;;;;5113252;28;20469;-41
2022/12/07 09:48:03;;;;;;;6.70;6.00;;;8.80;1.00;;;;;;5115100;28;20884;-41
2022/12/07 09:50:29;;;;;;;6.00;5.40;;;8.90;1.00;;;;;;5115683;28;20422;-40
2022/12/07 09:53:14;;;;;;;6.47;5.87;;;9.00;1.00;;;;;;5115634;27;20692;-40
2022/12/07 09:55:42;;;;;;;6.87;5.70;;;9.10;1.00;;;;;;5114543;28;20888;-40
2022/12/07 09:58:20;;;;;;;6.47;5.27;;;9.30;1.00;;;;;;5115751;28;20849;-41
2022/12/07 10:00:46;;;;;;;6.37;5.53;;;9.40;1.00;;;;;;5115293;28;20433;-41
2022/12/07 10:03:12;;;;;;;5.70;5.10;;;9.60;1.00;;;;;;5115675;28;20417;-40
2022/12/07 10:05:45;;;;;;;6.67;5.50;;;9.70;1.00;;;;;;5114790;28;20487;-41
2022/12/07 10:08:16;;;;;;;5.37;4.83;;;9.80;1.00;;;;;;5114440;28;20959;-42
2022/12/07 10:10:42;;;;;;;4.93;3.67;;;9.90;1.00;;;;;;5116797;28;20426;-41
2022/12/07 10:13:14;;;;;;;7.03;4.00;;;10.20;99.90;;;;;;5115045;28;20480;-43
2022/12/07 10:15:57;;;;;;;6.10;3.90;;;10.80;1.00;;;;;;5115732;28;20195;-42
2022/12/07 10:18:32;;;;;;;5.40;4.90;;;11.40;99.90;;;;;;5115354;28;20950;-40
2022/12/07 10:21:07;;;;;;;5.73;5.00;;;11.80;99.90;;;;;;5113783;28;20479;-41
2022/12/07 10:23:37;;;;;;;5.73;5.13;;;11.90;1.00;;;;;;5113611;28;20420;-41
2022/12/07 10:26:28;;;;;;;6.40;5.80;;;11.80;20.70;;;;;;5115344;28;20413;-42
2022/12/07 10:28:55;;;;;;;6.50;5.83;;;11.80;1.00;;;;;;5114755;28;20528;-41
2022/12/07 10:31:22;;;;;;;16.07;6.30;;;11.80;1.00;;;;;;5096130;28;20486;-41
2022/12/07 10:33:50;;;;;;;7.80;6.50;;;11.60;1.00;;;;;;5113028;28;20418;-42
2022/12/07 10:36:26;;;;;;;8.70;7.50;;;11.50;1.00;;;;;;5112277;28;20421;-42
2022/12/07 10:38:59;;;;;;;7.60;6.83;;;11.40;1.00;;;;;;5112434;28;20921;-40
2022/12/07 10:41:24;;;;;;;7.53;6.73;;;11.30;1.00;;;;;;5113827;28;20431;-42
2022/12/07 10:43:53;;;;;;;6.30;5.70;;;11.10;1.00;;;;;;5113984;28;20421;-42
2022/12/07 10:46:37;;;;;;;7.23;6.53;;;11.00;1.00;;;;;;5112857;28;20605;-40
2022/12/07 10:49:38;;;;;;;5.97;5.03;;;10.90;1.00;;;;;;5113913;28;20433;-40
2022/12/07 10:52:30;;;;;;;5.40;4.33;;;10.90;1.00;;;;;;5114125;28;20508;-40
2022/12/07 10:55:29;;;;;;;5.70;4.43;;;10.80;1.00;;;;;;5113707;28;20578;-42
2022/12/07 10:58:07;;;;;;;5.90;4.50;;;10.80;1.00;;;;;;5113709;28;20576;-41
2022/12/07 11:00:40;;;;;;;7.50;5.20;;;10.80;1.00;;;;;;5115503;28;20418;-40
2022/12/07 11:03:20;;;;;;;4.43;3.97;;;10.80;1.00;;;;;;5097678;28;20422;-41
2022/12/07 11:06:23;;;;;;;6.70;4.97;;;10.80;1.00;;;;;;5113803;28;20421;-42
2022/12/07 11:08:55;;;;;;;5.37;4.87;;;10.80;1.00;;;;;;5113982;28;20573;-41
2022/12/07 11:11:34;;;;;;;6.23;4.50;;;10.70;1.00;;;;;;5118432;28;20441;-40
2022/12/07 11:14:26;;;;;;;7.27;4.93;;;10.60;1.00;;;;;;5101880;28;20513;-42
2022/12/07 11:16:57;;;;;;;5.80;4.20;;;10.60;1.00;;;;;;5096333;28;20442;-39
2022/12/07 11:19:40;;;;;;;4.43;4.03;;;10.70;1.00;;;;;;5100967;28;20423;-41
2022/12/07 11:22:24;;;;;;;5.20;4.43;;;10.70;1.00;;;;;;5083758;28;20424;-43
2022/12/07 11:25:10;;;;;;;4.87;4.37;;;10.80;1.00;;;;;;5083695;28;20445;-41
2022/12/07 11:28:00;;;;;;;5.17;4.43;;;10.70;1.00;;;;;;5102094;28;20885;-40
2022/12/07 11:30:36;;;;;;;4.30;3.90;;;10.70;1.00;;;;;;5082259;28;20544;-40
2022/12/07 11:33:34;;;;;;;5.37;4.67;;;10.60;1.00;;;;;;5063927;28;20488;-40
2022/12/07 11:36:35;;;;;;;4.70;4.20;;;10.60;1.00;;;;;;5096984;28;20843;-40
2022/12/07 11:39:08;;;;;;;5.07;4.13;;;10.50;1.00;;;;;;5079284;28;20991;-41
2022/12/07 11:41:36;;;;;;;5.20;4.60;;;10.40;1.00;;;;;;5100146;28;20406;-41
2022/12/07 11:44:32;;;;;;;5.20;4.40;;;10.40;1.00;;;;;;5099057;28;20449;-40
2022/12/07 11:47:42;;;;;;;5.00;4.10;;;10.30;1.00;;;;;;5088563;28;20550;-41
2022/12/07 11:50:29;;;;;;;5.97;3.73;;;10.20;1.00;;;;;;5093181;28;20541;-43
2022/12/07 11:53:14;;;;;;;5.70;3.27;;;11.50;99.90;;;;;;5118766;28;20429;-43
2022/12/07 11:56:01;;;;;;;5.33;3.83;;;12.50;99.90;;;;;;5101571;28;20442;-40
2022/12/07 11:58:33;;;;;;;4.73;3.63;;;12.90;1.00;;;;;;5119181;28;20711;-39
2022/12/07 12:01:15;;;;;;;5.07;4.27;;;12.90;1.00;;;;;;5119777;28;20393;-41
2022/12/07 12:04:01;;;;;;;6.77;4.33;;;12.60;99.90;;;;;;5119555;28;20427;-41
2022/12/07 12:06:26;;;;;;;6.80;4.83;;;12.20;99.90;;;;;;5119634;28;20496;-42
2022/12/07 12:09:20;;;;;;;5.37;4.87;;;11.70;39.20;;;;;;5119340;28;20522;-42
2022/12/07 12:12:06;;;;;;;5.80;5.20;;;11.30;1.00;;;;;;5117680;28;20230;-41
2022/12/07 12:14:53;;;;;;;7.20;5.60;;;10.90;1.00;;;;;;5116670;28;20457;-43
2022/12/07 12:17:39;;;;;;;6.20;5.10;;;10.50;1.00;;;;;;5100581;28;20417;-40
2022/12/07 12:20:28;;;;;;;5.97;5.13;;;10.20;1.00;;;;;;5119156;28;20444;-43
2022/12/07 12:23:00;;;;;;;5.90;4.83;;;9.90;1.00;;;;;;5117174;28;20413;-40
2022/12/07 12:25:28;;;;;;;5.63;4.73;;;9.60;1.00;;;;;;5096738;28;20544;-43
2022/12/07 12:27:57;;;;;;;5.17;4.30;;;9.50;1.00;;;;;;5114581;28;20464;-43
2022/12/07 12:30:38;;;;;;;6.07;5.50;;;9.30;1.00;;;;;;5111918;28;20421;-42
2022/12/07 12:33:12;;;;;;;6.00;4.33;;;9.10;1.00;;;;;;5093714;28;20412;-40
2022/12/07 12:35:38;;;;;;;5.60;4.20;;;9.00;1.00;;;;;;5113724;28;20425;-40
2022/12/07 12:38:30;;;;;;;5.83;5.27;;;8.80;1.00;;;;;;5111762;28;20414;-42
2022/12/07 12:40:56;;;;;;;7.97;5.37;;;8.60;1.00;;;;;;5111475;28;20202;-41
2022/12/07 12:43:49;;;;;;;6.10;4.70;;;8.50;1.00;;;;;;5093906;28;20823;-40
2022/12/07 12:46:30;;;;;;;5.87;4.90;;;8.40;1.00;;;;;;5078264;28;20421;-40
2022/12/07 12:49:21;;;;;;;9.00;4.80;;;8.40;41.90;;;;;;5113168;28;20464;-40
2022/12/07 12:51:52;;;;;;;4.00;3.30;;;8.30;99.90;;;;;;5114059;28;20799;-41
2022/12/07 12:54:18;;;;;;;3.57;3.27;;;8.30;99.90;;;;;;5095063;28;20418;-42
2022/12/07 12:56:58;;;;;;;4.80;3.33;;;8.40;99.90;;;;;;5114043;28;20826;-42
2022/12/07 12:59:25;;;;;;;4.60;3.33;;;8.40;99.90;;;;;;5096619;28;20387;-43
2022/12/07 13:01:54;;;;;;;6.20;3.40;;;8.50;99.90;;;;;;5111782;28;20858;-44
2022/12/07 13:04:24;;;;;;;3.67;3.30;;;8.40;99.90;;;;;;5112970;28;20418;-41
2022/12/07 13:06:50;;;;;;;5.97;3.70;;;8.50;99.90;;;;;;5113881;28;20425;-41
2022/12/07 13:09:36;;;;;;;5.43;3.77;;;8.50;99.90;;;;;;5097195;28;20425;-41
2022/12/07 13:12:12;;;;;;;3.13;2.80;;;8.50;99.90;;;;;;5114669;28;20476;-41
2022/12/07 13:14:53;;;;;;;4.40;2.73;;;8.50;99.90;;;;;;5097640;28;20451;-42
2022/12/07 13:17:31;;;;;;;5.03;2.60;;;8.50;99.90;;;;;;5097324;28;20409;-41
2022/12/07 13:19:58;;;;;;;3.23;2.63;;;8.50;99.90;;;;;;5117149;28;20771;-41
2022/12/07 13:22:30;;;;;;;5.37;4.10;;;8.50;99.90;;;;;;5117695;28;20445;-42
2022/12/07 13:25:10;;;;;;;5.20;4.07;;;8.60;99.90;;;;;;5099812;28;20438;-43